sensor_id;sensor_type;location;lat;lon;timestamp;pressure;altitude;pressure_sealevel;temperature;humidity
13968;BME280;39536;52.198;9.920;2023-09-19T00:02:05;99746.50;;;17.70;100.00
13968;BME280;39536;52.198;9.920;2023-09-19T00:04:34;99734.97;;;17.60;100.00
13968;BME280;39536;52.198;9.920;2023-09-19T00:07:00;99737.25;;;17.65;100.00
13968;BME280;39536;52.198;9.920;2023-09-19T00:09:28;99735.47;;;17.65;100.00
13968;BME280;39536;52.198;9.920;2023-09-19T00:11:55;99731.91;;;17.66;100.00
13968;BME280;39536;52.198;9.920;2023-09-19T00:14:24;99737.16;;;17.66;100.00
13968;BME280;39536;52.198;9.920;2023-09-19T00:16:51;99742.44;;;17.66;100.00
13968;BME280;39536;52.198;9.920;2023-09-19T00:19:21;99748.75;;;17.64;100.00
13968;BME280;39536;52.198;9.920;2023-09-19T00:21:49;99752.69;;;17.69;100.00
13968;BME280;39536;52.198;9.920;2023-09-19T00:24:16;99764.94;;;17.70;100.00
13968;BME280;39536;52.198;9.920;2023-09-19T00:26:43;99769.31;;;17.59;100.00
13968;BME280;39536;52.198;9.920;2023-09-19T00:29:11;99767.94;;;17.42;100.00
13968;BME280;39536;52.198;9.920;2023-09-19T00:31:43;99766.63;;;17.47;100.00
13968;BME280;39536;52.198;9.920;2023-09-19T00:34:09;99767.81;;;17.43;100.00
13968;BME280;39536;52.198;9.920;2023-09-19T00:36:37;99767.31;;;17.38;100.00
13968;BME280;39536;52.198;9.920;2023-09-19T00:39:05;99771.25;;;17.33;100.00
13968;BME280;39536;52.198;9.920;2023-09-19T00:41:31;99768.22;;;17.26;100.00
13968;BME280;39536;52.198;9.920;2023-09-19T00:44:00;99761.25;;;17.25;100.00
13968;BME280;39536;52.198;9.920;2023-09-19T00:46:30;99769.44;;;17.33;100.00
13968;BME280;39536;52.198;9.920;2023-09-19T00:48:58;99766.81;;;17.33;100.00
13968;BME280;39536;52.198;9.920;2023-09-19T00:51:25;99762.84;;;17.27;100.00
13968;BME280;39536;52.198;9.920;2023-09-19T00:53:54;99771.50;;;17.41;100.00
13968;BME280;39536;52.198;9.920;2023-09-19T00:56:21;99763.97;;;17.36;100.00
13968;BME280;39536;52.198;9.920;2023-09-19T00:58:48;99776.59;;;17.31;100.00
13968;BME280;39536;52.198;9.920;2023-09-19T01:01:15;99771.56;;;17.28;100.00
13968;BME280;39536;52.198;9.920;2023-09-19T01:03:42;99776.00;;;17.27;100.00
13968;BME280;39536;52.198;9.920;2023-09-19T01:06:10;99765.69;;;17.24;100.00
13968;BME280;39536;52.198;9.920;2023-09-19T01:08:37;99774.50;;;17.36;100.00
13968;BME280;39536;52.198;9.920;2023-09-19T01:11:13;99764.88;;;17.48;100.00
13968;BME280;39536;52.198;9.920;2023-09-19T01:13:48;99773.69;;;17.47;100.00
13968;BME280;39536;52.198;9.920;2023-09-19T01:16:29;99781.88;;;17.31;100.00
13968;BME280;39536;52.198;9.920;2023-09-19T01:19:11;99785.91;;;17.24;100.00
13968;BME280;39536;52.198;9.920;2023-09-19T01:21:50;99786.66;;;17.26;100.00
13968;BME280;39536;52.198;9.920;2023-09-19T01:24:41;99798.72;;;17.28;100.00
13968;BME280;39536;52.198;9.920;2023-09-19T01:27:32;99788.72;;;17.34;100.00
13968;BME280;39536;52.198;9.920;2023-09-19T01:30:14;99796.09;;;17.28;100.00
13968;BME280;39536;52.198;9.920;2023-09-19T01:32:41;99794.16;;;17.06;100.00
13968;BME280;39536;52.198;9.920;2023-09-19T01:35:09;99796.09;;;17.04;100.00
13968;BME280;39536;52.198;9.920;2023-09-19T01:37:38;99809.59;;;17.24;100.00
13968;BME280;39536;52.198;9.920;2023-09-19T01:40:10;99809.31;;;17.16;100.00
13968;BME280;39536;52.198;9.920;2023-09-19T01:42:45;99817.09;;;17.17;100.00
13968;BME280;39536;52.198;9.920;2023-09-19T01:45:26;99808.38;;;17.17;100.00
13968;BME280;39536;52.198;9.920;2023-09-19T01:47:55;99813.50;;;17.18;100.00
13968;BME280;39536;52.198;9.920;2023-09-19T01:50:29;99828.34;;;17.19;100.00
13968;BME280;39536;52.198;9.920;2023-09-19T01:53:02;99820.78;;;17.15;100.00
13968;BME280;39536;52.198;9.920;2023-09-19T01:55:36;99828.06;;;17.11;100.00
13968;BME280;39536;52.198;9.920;2023-09-19T01:58:08;99824.69;;;17.09;100.00
13968;BME280;39536;52.198;9.920;2023-09-19T02:00:43;99814.91;;;17.11;100.00
13968;BME280;39536;52.198;9.920;2023-09-19T02:03:11;99822.59;;;17.14;100.00
13968;BME280;39536;52.198;9.920;2023-09-19T02:05:39;99833.53;;;17.08;100.00
13968;BME280;39536;52.198;9.920;2023-09-19T02:08:05;99828.88;;;17.24;100.00
13968;BME280;39536;52.198;9.920;2023-09-19T02:10:32;99830.72;;;17.35;100.00
13968;BME280;39536;52.198;9.920;2023-09-19T02:12:59;99835.66;;;17.40;100.00
13968;BME280;39536;52.198;9.920;2023-09-19T02:15:26;99840.53;;;17.33;100.00
13968;BME280;39536;52.198;9.920;2023-09-19T02:17:54;99842.31;;;17.33;100.00
13968;BME280;39536;52.198;9.920;2023-09-19T02:20:22;99849.31;;;17.21;100.00
13968;BME280;39536;52.198;9.920;2023-09-19T02:22:48;99845.28;;;17.28;100.00
13968;BME280;39536;52.198;9.920;2023-09-19T02:25:15;99854.53;;;17.34;100.00
13968;BME280;39536;52.198;9.920;2023-09-19T02:27:43;99849.25;;;17.34;100.00
13968;BME280;39536;52.198;9.920;2023-09-19T02:30:11;99858.00;;;17.34;100.00
13968;BME280;39536;52.198;9.920;2023-09-19T02:32:40;99851.06;;;17.33;100.00
13968;BME280;39536;52.198;9.920;2023-09-19T02:35:09;99855.28;;;17.36;100.00
13968;BME280;39536;52.198;9.920;2023-09-19T02:37:36;99857.91;;;17.36;100.00
13968;BME280;39536;52.198;9.920;2023-09-19T02:40:04;99862.31;;;17.35;100.00
13968;BME280;39536;52.198;9.920;2023-09-19T02:42:43;99858.47;;;17.15;100.00
13968;BME280;39536;52.198;9.920;2023-09-19T02:45:13;99866.78;;;17.22;100.00
13968;BME280;39536;52.198;9.920;2023-09-19T02:47:40;99855.63;;;17.18;100.00
13968;BME280;39536;52.198;9.920;2023-09-19T02:50:09;99842.16;;;17.23;100.00
13968;BME280;39536;52.198;9.920;2023-09-19T02:52:36;99846.28;;;17.14;100.00
13968;BME280;39536;52.198;9.920;2023-09-19T02:55:03;99844.56;;;17.13;100.00
13968;BME280;39536;52.198;9.920;2023-09-19T02:57:31;99853.56;;;16.98;100.00
13968;BME280;39536;52.198;9.920;2023-09-19T02:59:59;99852.41;;;17.02;100.00
13968;BME280;39536;52.198;9.920;2023-09-19T03:02:26;99851.25;;;16.93;100.00
13968;BME280;39536;52.198;9.920;2023-09-19T03:04:54;99852.41;;;17.02;100.00
13968;BME280;39536;52.198;9.920;2023-09-19T03:07:23;99848.91;;;17.14;100.00
13968;BME280;39536;52.198;9.920;2023-09-19T03:09:50;99843.13;;;17.09;100.00
13968;BME280;39536;52.198;9.920;2023-09-19T03:12:18;99852.28;;;17.03;100.00
13968;BME280;39536;52.198;9.920;2023-09-19T03:14:44;99854.06;;;17.03;100.00
13968;BME280;39536;52.198;9.920;2023-09-19T03:17:11;99855.56;;;16.94;100.00
13968;BME280;39536;52.198;9.920;2023-09-19T03:19:40;99857.34;;;16.94;100.00
13968;BME280;39536;52.198;9.920;2023-09-19T03:22:06;99866.84;;;16.83;100.00
13968;BME280;39536;52.198;9.920;2023-09-19T03:24:35;99877.25;;;16.85;100.00
13968;BME280;39536;52.198;9.920;2023-09-19T03:27:03;99878.94;;;16.99;100.00
13968;BME280;39536;52.198;9.920;2023-09-19T03:29:30;99882.72;;;16.95;100.00
13968;BME280;39536;52.198;9.920;2023-09-19T03:31:56;99874.19;;;16.91;100.00
13968;BME280;39536;52.198;9.920;2023-09-19T03:34:23;99882.09;;;16.78;100.00
13968;BME280;39536;52.198;9.920;2023-09-19T03:36:50;99884.50;;;16.81;100.00
13968;BME280;39536;52.198;9.920;2023-09-19T03:39:17;99902.91;;;16.81;100.00
13968;BME280;39536;52.198;9.920;2023-09-19T03:41:45;99886.09;;;16.84;100.00
13968;BME280;39536;52.198;9.920;2023-09-19T03:44:11;99891.13;;;16.87;100.00
13968;BME280;39536;52.198;9.920;2023-09-19T03:46:38;99891.75;;;16.91;100.00
13968;BME280;39536;52.198;9.920;2023-09-19T03:49:04;99888.31;;;16.77;100.00
13968;BME280;39536;52.198;9.920;2023-09-19T03:51:31;99893.94;;;16.71;100.00
13968;BME280;39536;52.198;9.920;2023-09-19T03:53:59;99889.84;;;16.67;100.00
13968;BME280;39536;52.198;9.920;2023-09-19T03:56:26;99909.94;;;16.68;100.00
13968;BME280;39536;52.198;9.920;2023-09-19T03:58:55;99910.13;;;16.52;100.00
13968;BME280;39536;52.198;9.920;2023-09-19T04:01:21;99920.09;;;16.47;100.00
13968;BME280;39536;52.198;9.920;2023-09-19T04:03:48;99919.63;;;16.55;100.00
13968;BME280;39536;52.198;9.920;2023-09-19T04:06:17;99919.41;;;16.71;100.00
13968;BME280;39536;52.198;9.920;2023-09-19T04:08:44;99924.28;;;16.77;100.00
13968;BME280;39536;52.198;9.920;2023-09-19T04:11:11;99932.34;;;16.61;100.00
13968;BME280;39536;52.198;9.920;2023-09-19T04:13:38;99929.78;;;16.47;100.00
13968;BME280;39536;52.198;9.920;2023-09-19T04:16:06;99942.59;;;16.38;100.00
13968;BME280;39536;52.198;9.920;2023-09-19T04:18:33;99941.13;;;16.34;100.00
13968;BME280;39536;52.198;9.920;2023-09-19T04:21:03;99934.19;;;16.33;100.00
13968;BME280;39536;52.198;9.920;2023-09-19T04:23:30;99930.91;;;16.30;100.00
13968;BME280;39536;52.198;9.920;2023-09-19T04:25:57;99932.19;;;16.37;100.00
13968;BME280;39536;52.198;9.920;2023-09-19T04:28:24;99934.06;;;16.35;100.00
13968;BME280;39536;52.198;9.920;2023-09-19T04:30:53;99932.94;;;16.39;100.00
13968;BME280;39536;52.198;9.920;2023-09-19T04:33:21;99935.00;;;16.21;100.00
13968;BME280;39536;52.198;9.920;2023-09-19T04:35:49;99930.41;;;16.37;100.00
13968;BME280;39536;52.198;9.920;2023-09-19T04:38:16;99938.09;;;16.40;100.00
13968;BME280;39536;52.198;9.920;2023-09-19T04:40:43;99943.66;;;16.36;100.00
13968;BME280;39536;52.198;9.920;2023-09-19T04:43:09;99937.28;;;16.13;100.00
13968;BME280;39536;52.198;9.920;2023-09-19T04:45:38;99934.81;;;16.37;100.00
13968;BME280;39536;52.198;9.920;2023-09-19T04:48:05;99945.22;;;16.38;100.00
13968;BME280;39536;52.198;9.920;2023-09-19T04:50:35;99946.75;;;16.55;100.00
13968;BME280;39536;52.198;9.920;2023-09-19T04:53:02;99945.34;;;16.50;100.00
13968;BME280;39536;52.198;9.920;2023-09-19T04:55:30;99946.50;;;16.46;100.00
13968;BME280;39536;52.198;9.920;2023-09-19T04:57:58;99959.47;;;16.49;100.00
13968;BME280;39536;52.198;9.920;2023-09-19T05:00:25;99960.19;;;16.51;100.00
13968;BME280;39536;52.198;9.920;2023-09-19T05:02:55;99964.81;;;16.60;100.00
13968;BME280;39536;52.198;9.920;2023-09-19T05:05:22;99973.03;;;16.55;100.00
13968;BME280;39536;52.198;9.920;2023-09-19T05:07:52;99972.59;;;16.49;100.00
13968;BME280;39536;52.198;9.920;2023-09-19T05:10:19;99976.06;;;16.49;100.00
13968;BME280;39536;52.198;9.920;2023-09-19T05:12:47;99978.28;;;16.43;100.00
13968;BME280;39536;52.198;9.920;2023-09-19T05:15:16;99983.41;;;16.44;100.00
13968;BME280;39536;52.198;9.920;2023-09-19T05:17:47;99974.47;;;16.47;100.00
13968;BME280;39536;52.198;9.920;2023-09-19T05:20:14;99982.78;;;16.40;100.00
13968;BME280;39536;52.198;9.920;2023-09-19T05:22:51;99976.34;;;16.45;100.00
13968;BME280;39536;52.198;9.920;2023-09-19T05:25:23;99994.75;;;16.45;100.00
13968;BME280;39536;52.198;9.920;2023-09-19T05:27:53;99996.47;;;16.46;100.00
13968;BME280;39536;52.198;9.920;2023-09-19T05:30:19;99999.50;;;16.39;100.00
13968;BME280;39536;52.198;9.920;2023-09-19T05:32:47;100001.09;;;16.42;100.00
13968;BME280;39536;52.198;9.920;2023-09-19T05:35:14;100010.16;;;16.24;100.00
13968;BME280;39536;52.198;9.920;2023-09-19T05:37:41;100012.88;;;16.22;100.00
13968;BME280;39536;52.198;9.920;2023-09-19T05:40:10;100020.38;;;16.28;100.00
13968;BME280;39536;52.198;9.920;2023-09-19T05:42:37;100018.38;;;16.32;100.00
13968;BME280;39536;52.198;9.920;2023-09-19T05:45:05;99998.06;;;16.21;100.00
13968;BME280;39536;52.198;9.920;2023-09-19T05:47:32;100002.47;;;16.21;100.00
13968;BME280;39536;52.198;9.920;2023-09-19T05:49:59;100008.38;;;16.24;100.00
13968;BME280;39536;52.198;9.920;2023-09-19T05:52:26;100015.31;;;16.25;100.00
13968;BME280;39536;52.198;9.920;2023-09-19T05:54:53;100013.72;;;16.23;100.00
13968;BME280;39536;52.198;9.920;2023-09-19T05:57:21;100013.53;;;16.26;100.00
13968;BME280;39536;52.198;9.920;2023-09-19T05:59:47;100026.13;;;16.21;100.00
13968;BME280;39536;52.198;9.920;2023-09-19T06:02:15;100034.88;;;16.07;100.00
13968;BME280;39536;52.198;9.920;2023-09-19T06:04:44;100036.22;;;16.00;100.00
13968;BME280;39536;52.198;9.920;2023-09-19T06:07:11;100044.34;;;16.09;100.00
13968;BME280;39536;52.198;9.920;2023-09-19T06:09:37;100041.34;;;16.15;100.00
13968;BME280;39536;52.198;9.920;2023-09-19T06:12:05;100047.28;;;16.05;100.00
13968;BME280;39536;52.198;9.920;2023-09-19T06:14:33;100047.94;;;16.08;100.00
13968;BME280;39536;52.198;9.920;2023-09-19T06:16:59;100062.66;;;16.11;100.00
13968;BME280;39536;52.198;9.920;2023-09-19T06:19:26;100049.53;;;16.11;100.00
13968;BME280;39536;52.198;9.920;2023-09-19T06:21:53;100050.94;;;16.02;100.00
13968;BME280;39536;52.198;9.920;2023-09-19T06:24:20;100056.13;;;15.89;100.00
13968;BME280;39536;52.198;9.920;2023-09-19T06:26:47;100072.16;;;15.85;100.00
13968;BME280;39536;52.198;9.920;2023-09-19T06:29:14;100063.38;;;15.86;100.00
13968;BME280;39536;52.198;9.920;2023-09-19T06:31:42;100055.56;;;15.84;100.00
13968;BME280;39536;52.198;9.920;2023-09-19T06:34:09;100055.19;;;15.90;100.00
13968;BME280;39536;52.198;9.920;2023-09-19T06:36:36;100084.25;;;16.02;100.00
13968;BME280;39536;52.198;9.920;2023-09-19T06:39:03;100060.69;;;16.00;100.00
13968;BME280;39536;52.198;9.920;2023-09-19T06:41:31;100060.69;;;16.00;100.00
13968;BME280;39536;52.198;9.920;2023-09-19T06:43:58;100065.69;;;16.05;100.00
13968;BME280;39536;52.198;9.920;2023-09-19T06:46:25;100050.75;;;16.05;100.00
13968;BME280;39536;52.198;9.920;2023-09-19T06:48:59;100066.88;;;16.13;100.00
13968;BME280;39536;52.198;9.920;2023-09-19T06:51:26;100059.28;;;16.09;100.00
13968;BME280;39536;52.198;9.920;2023-09-19T06:53:52;100057.94;;;16.16;100.00
13968;BME280;39536;52.198;9.920;2023-09-19T06:56:19;100048.63;;;16.25;100.00
13968;BME280;39536;52.198;9.920;2023-09-19T06:58:50;100055.78;;;16.23;100.00
13968;BME280;39536;52.198;9.920;2023-09-19T07:01:16;100053.94;;;16.37;100.00
13968;BME280;39536;52.198;9.920;2023-09-19T07:03:43;100056.31;;;16.28;100.00
13968;BME280;39536;52.198;9.920;2023-09-19T07:06:12;100058.97;;;16.28;100.00
13968;BME280;39536;52.198;9.920;2023-09-19T07:08:39;100058.16;;;16.40;100.00
13968;BME280;39536;52.198;9.920;2023-09-19T07:11:06;100065.53;;;16.48;100.00
13968;BME280;39536;52.198;9.920;2023-09-19T07:13:32;100080.22;;;16.37;100.00
13968;BME280;39536;52.198;9.920;2023-09-19T07:15:59;100091.66;;;16.51;100.00
13968;BME280;39536;52.198;9.920;2023-09-19T07:18:26;100086.03;;;16.70;100.00
13968;BME280;39536;52.198;9.920;2023-09-19T07:20:57;100085.59;;;16.77;100.00
13968;BME280;39536;52.198;9.920;2023-09-19T07:23:28;100079.38;;;16.78;100.00
13968;BME280;39536;52.198;9.920;2023-09-19T07:25:56;100075.69;;;16.81;100.00
13968;BME280;39536;52.198;9.920;2023-09-19T07:28:24;100071.22;;;16.96;100.00
13968;BME280;39536;52.198;9.920;2023-09-19T07:30:50;100076.03;;;16.89;100.00
13968;BME280;39536;52.198;9.920;2023-09-19T07:33:18;100088.16;;;16.92;100.00
13968;BME280;39536;52.198;9.920;2023-09-19T07:35:48;100080.56;;;16.73;100.00
13968;BME280;39536;52.198;9.920;2023-09-19T07:38:15;100092.44;;;16.80;100.00
13968;BME280;39536;52.198;9.920;2023-09-19T07:40:43;100088.38;;;16.74;100.00
13968;BME280;39536;52.198;9.920;2023-09-19T07:43:10;100089.47;;;16.84;100.00
13968;BME280;39536;52.198;9.920;2023-09-19T07:45:36;100092.63;;;16.77;100.00
13968;BME280;39536;52.198;9.920;2023-09-19T07:48:03;100096.00;;;16.79;100.00
13968;BME280;39536;52.198;9.920;2023-09-19T07:50:33;100112.72;;;16.78;100.00
13968;BME280;39536;52.198;9.920;2023-09-19T07:53:02;100103.63;;;16.96;100.00
13968;BME280;39536;52.198;9.920;2023-09-19T07:55:30;100112.28;;;16.98;100.00
13968;BME280;39536;52.198;9.920;2023-09-19T07:58:00;100107.25;;;17.08;100.00
13968;BME280;39536;52.198;9.920;2023-09-19T08:00:29;100118.28;;;17.13;100.00
13968;BME280;39536;52.198;9.920;2023-09-19T08:02:58;100119.22;;;16.99;100.00
13968;BME280;39536;52.198;9.920;2023-09-19T08:05:24;100115.09;;;16.95;100.00
13968;BME280;39536;52.198;9.920;2023-09-19T08:07:51;100107.41;;;16.92;100.00
13968;BME280;39536;52.198;9.920;2023-09-19T08:10:19;100107.41;;;16.92;100.00
13968;BME280;39536;52.198;9.920;2023-09-19T08:12:47;100118.56;;;16.96;100.00
13968;BME280;39536;52.198;9.920;2023-09-19T08:15:16;100109.25;;;16.77;100.00
13968;BME280;39536;52.198;9.920;2023-09-19T08:17:45;100115.09;;;16.95;100.00
13968;BME280;39536;52.198;9.920;2023-09-19T08:20:13;100111.75;;;17.06;100.00
13968;BME280;39536;52.198;9.920;2023-09-19T08:22:43;100108.28;;;17.05;100.00
13968;BME280;39536;52.198;9.920;2023-09-19T08:25:11;100116.94;;;17.07;100.00
13968;BME280;39536;52.198;9.920;2023-09-19T08:27:38;100115.78;;;17.12;100.00
13968;BME280;39536;52.198;9.920;2023-09-19T08:30:06;100101.78;;;17.24;100.00
13968;BME280;39536;52.198;9.920;2023-09-19T08:32:34;100107.06;;;17.37;100.00
13968;BME280;39536;52.198;9.920;2023-09-19T08:35:01;100123.06;;;17.46;100.00
13968;BME280;39536;52.198;9.920;2023-09-19T08:37:29;100132.22;;;17.41;100.00
13968;BME280;39536;52.198;9.920;2023-09-19T08:39:56;100125.50;;;17.62;100.00
13968;BME280;39536;52.198;9.920;2023-09-19T08:42:23;100133.19;;;17.52;100.00
13968;BME280;39536;52.198;9.920;2023-09-19T08:44:50;100119.69;;;17.44;100.00
13968;BME280;39536;52.198;9.920;2023-09-19T08:47:24;100119.19;;;17.52;100.00
13968;BME280;39536;52.198;9.920;2023-09-19T08:50:01;100117.72;;;17.48;100.00
13968;BME280;39536;52.198;9.920;2023-09-19T08:52:43;100113.81;;;17.53;100.00
13968;BME280;39536;52.198;9.920;2023-09-19T08:55:13;100122.03;;;17.62;100.00
13968;BME280;39536;52.198;9.920;2023-09-19T08:57:46;100117.41;;;17.65;100.00
13968;BME280;39536;52.198;9.920;2023-09-19T09:00:15;100117.84;;;17.85;100.00
13968;BME280;39536;52.198;9.920;2023-09-19T09:02:43;100122.19;;;17.86;100.00
13968;BME280;39536;52.198;9.920;2023-09-19T09:05:12;100120.91;;;17.91;100.00
13968;BME280;39536;52.198;9.920;2023-09-19T09:07:40;100123.50;;;18.17;100.00
13968;BME280;39536;52.198;9.920;2023-09-19T09:10:07;100125.59;;;18.12;100.00
13968;BME280;39536;52.198;9.920;2023-09-19T09:12:35;100123.41;;;18.06;100.00
13968;BME280;39536;52.198;9.920;2023-09-19T09:15:05;100111.69;;;18.10;100.00
13968;BME280;39536;52.198;9.920;2023-09-19T09:17:34;100130.88;;;18.12;100.00
13968;BME280;39536;52.198;9.920;2023-09-19T09:20:00;100141.00;;;18.18;100.00
13968;BME280;39536;52.198;9.920;2023-09-19T09:22:30;100131.28;;;18.18;100.00
13968;BME280;39536;52.198;9.920;2023-09-19T09:24:58;100137.31;;;18.08;100.00
13968;BME280;39536;52.198;9.920;2023-09-19T09:27:27;100133.94;;;18.06;100.00
13968;BME280;39536;52.198;9.920;2023-09-19T09:29:54;100128.16;;;18.13;100.00
13968;BME280;39536;52.198;9.920;2023-09-19T09:32:23;100132.88;;;18.21;100.00
13968;BME280;39536;52.198;9.920;2023-09-19T09:34:52;100131.47;;;18.28;100.00
13968;BME280;39536;52.198;9.920;2023-09-19T09:37:20;100115.94;;;18.36;100.00
13968;BME280;39536;52.198;9.920;2023-09-19T09:39:52;100125.19;;;18.55;100.00
13968;BME280;39536;52.198;9.920;2023-09-19T09:42:32;100136.47;;;18.57;100.00
13968;BME280;39536;52.198;9.920;2023-09-19T09:45:13;100131.06;;;18.58;100.00
13968;BME280;39536;52.198;9.920;2023-09-19T09:47:45;100139.59;;;18.62;100.00
13968;BME280;39536;52.198;9.920;2023-09-19T09:50:28;100139.38;;;18.65;100.00
13968;BME280;39536;52.198;9.920;2023-09-19T09:53:03;100135.78;;;18.66;100.00
13968;BME280;39536;52.198;9.920;2023-09-19T09:55:58;100142.72;;;18.80;100.00
13968;BME280;39536;52.198;9.920;2023-09-19T09:58:26;100146.59;;;18.50;100.00
13968;BME280;39536;52.198;9.920;2023-09-19T10:00:55;100148.75;;;18.45;100.00
13968;BME280;39536;52.198;9.920;2023-09-19T10:03:32;100150.41;;;18.46;100.00
13968;BME280;39536;52.198;9.920;2023-09-19T10:06:00;100153.06;;;18.46;100.00
13968;BME280;39536;52.198;9.920;2023-09-19T10:09:02;100148.09;;;18.54;100.00
13968;BME280;39536;52.198;9.920;2023-09-19T10:11:41;100144.69;;;18.52;100.00
13968;BME280;39536;52.198;9.920;2023-09-19T10:14:10;100152.53;;;18.41;100.00
13968;BME280;39536;52.198;9.920;2023-09-19T10:16:47;100133.84;;;18.44;100.00
13968;BME280;39536;52.198;9.920;2023-09-19T10:19:16;100148.03;;;18.30;100.00
13968;BME280;39536;52.198;9.920;2023-09-19T10:21:50;100143.41;;;18.21;100.00
13968;BME280;39536;52.198;9.920;2023-09-19T10:24:19;100156.13;;;18.40;100.00
13968;BME280;39536;52.198;9.920;2023-09-19T10:26:49;100144.81;;;18.51;100.00
13968;BME280;39536;52.198;9.920;2023-09-19T10:29:17;100139.34;;;18.78;100.00
13968;BME280;39536;52.198;9.920;2023-09-19T10:31:47;100141.84;;;18.92;100.00
13968;BME280;39536;52.198;9.920;2023-09-19T10:34:17;100138.78;;;19.09;100.00
13968;BME280;39536;52.198;9.920;2023-09-19T10:36:45;100142.06;;;19.13;100.00
13968;BME280;39536;52.198;9.920;2023-09-19T10:39:14;100143.78;;;19.01;100.00
13968;BME280;39536;52.198;9.920;2023-09-19T10:41:49;100156.53;;;19.07;100.00
13968;BME280;39536;52.198;9.920;2023-09-19T10:44:21;100141.38;;;18.98;100.00
13968;BME280;39536;52.198;9.920;2023-09-19T10:46:51;100143.34;;;19.07;100.00
13968;BME280;39536;52.198;9.920;2023-09-19T10:49:21;100138.81;;;19.21;100.00
13968;BME280;39536;52.198;9.920;2023-09-19T10:51:53;100134.84;;;19.61;100.00
13968;BME280;39536;52.198;9.920;2023-09-19T10:54:22;100143.69;;;19.38;100.00
13968;BME280;39536;52.198;9.920;2023-09-19T10:56:53;100144.16;;;19.43;100.00
13968;BME280;39536;52.198;9.920;2023-09-19T10:59:24;100136.59;;;19.38;100.00
13968;BME280;39536;52.198;9.920;2023-09-19T11:02:15;100141.28;;;19.46;100.00
13968;BME280;39536;52.198;9.920;2023-09-19T11:04:42;100140.81;;;19.52;100.00
13968;BME280;39536;52.198;9.920;2023-09-19T11:07:13;100141.31;;;19.57;100.00
13968;BME280;39536;52.198;9.920;2023-09-19T11:09:48;100138.72;;;19.80;100.00
13968;BME280;39536;52.198;9.920;2023-09-19T11:12:51;100141.13;;;19.72;100.00
13968;BME280;39536;52.198;9.920;2023-09-19T11:18:51;100143.03;;;19.81;100.00
13968;BME280;39536;52.198;9.920;2023-09-19T11:21:42;100128.88;;;19.71;100.00
13968;BME280;39536;52.198;9.920;2023-09-19T11:24:32;100145.34;;;19.39;100.00
13968;BME280;39536;52.198;9.920;2023-09-19T11:27:25;100129.06;;;19.56;100.00
13968;BME280;39536;52.198;9.920;2023-09-19T11:30:25;100129.72;;;19.71;100.00
13968;BME280;39536;52.198;9.920;2023-09-19T11:33:16;100128.16;;;19.80;100.00
13968;BME280;39536;52.198;9.920;2023-09-19T11:36:04;100124.25;;;19.61;100.00
13968;BME280;39536;52.198;9.920;2023-09-19T11:39:01;100124.66;;;19.68;100.00
13968;BME280;39536;52.198;9.920;2023-09-19T11:41:46;100129.22;;;19.77;100.00
13968;BME280;39536;52.198;9.920;2023-09-19T11:44:34;100121.44;;;19.98;100.00
13968;BME280;39536;52.198;9.920;2023-09-19T11:47:10;100133.69;;;19.88;100.00
13968;BME280;39536;52.198;9.920;2023-09-19T11:49:46;100126.00;;;19.96;100.00
13968;BME280;39536;52.198;9.920;2023-09-19T11:52:21;100140.91;;;20.08;100.00
13968;BME280;39536;52.198;9.920;2023-09-19T11:54:55;100138.59;;;19.70;100.00
13968;BME280;39536;52.198;9.920;2023-09-19T11:57:23;100122.88;;;19.80;100.00
13968;BME280;39536;52.198;9.920;2023-09-19T11:59:50;100122.66;;;19.94;100.00
13968;BME280;39536;52.198;9.920;2023-09-19T12:02:35;100122.28;;;19.76;100.00
13968;BME280;39536;52.198;9.920;2023-09-19T12:05:08;100133.81;;;20.09;100.00
13968;BME280;39536;52.198;9.920;2023-09-19T12:07:44;100131.16;;;20.20;100.00
13968;BME280;39536;52.198;9.920;2023-09-19T12:10:18;100117.81;;;20.22;100.00
13968;BME280;39536;52.198;9.920;2023-09-19T12:12:51;100119.59;;;20.21;100.00
13968;BME280;39536;52.198;9.920;2023-09-19T12:15:25;100123.31;;;20.52;100.00
13968;BME280;39536;52.198;9.920;2023-09-19T12:17:55;100121.13;;;20.46;100.00
13968;BME280;39536;52.198;9.920;2023-09-19T12:20:25;100126.34;;;20.14;100.00
13968;BME280;39536;52.198;9.920;2023-09-19T12:23:13;100104.72;;;19.64;100.00
13968;BME280;39536;52.198;9.920;2023-09-19T12:25:42;100132.25;;;19.73;100.00
13968;BME280;39536;52.198;9.920;2023-09-19T12:28:15;100127.09;;;19.82;100.00
13968;BME280;39536;52.198;9.920;2023-09-19T12:30:48;100129.00;;;20.03;100.00
13968;BME280;39536;52.198;9.920;2023-09-19T12:33:20;100122.75;;;20.26;100.00
13968;BME280;39536;52.198;9.920;2023-09-19T12:35:54;100129.94;;;20.24;100.00
13968;BME280;39536;52.198;9.920;2023-09-19T12:38:28;100134.88;;;19.84;100.00
13968;BME280;39536;52.198;9.920;2023-09-19T12:41:04;100124.53;;;19.81;100.00
13968;BME280;39536;52.198;9.920;2023-09-19T12:43:33;100119.41;;;19.91;100.00
13968;BME280;39536;52.198;9.920;2023-09-19T12:46:01;100119.25;;;19.81;100.00
13968;BME280;39536;52.198;9.920;2023-09-19T12:48:34;100130.06;;;19.78;100.00
13968;BME280;39536;52.198;9.920;2023-09-19T12:51:07;100119.28;;;19.92;100.00
13968;BME280;39536;52.198;9.920;2023-09-19T12:53:39;100127.56;;;19.76;100.00
13968;BME280;39536;52.198;9.920;2023-09-19T12:56:08;100127.53;;;19.65;100.00
13968;BME280;39536;52.198;9.920;2023-09-19T12:58:48;100133.16;;;19.60;100.00
13968;BME280;39536;52.198;9.920;2023-09-19T13:01:19;100130.22;;;19.88;100.00
13968;BME280;39536;52.198;9.920;2023-09-19T13:04:15;100126.34;;;20.03;100.00
13968;BME280;39536;52.198;9.920;2023-09-19T13:06:45;100129.00;;;20.14;100.00